createdAt,value
2018-10-19T14:03:18.403Z,19.27
2018-10-19T14:05:46.927Z,18.17
2018-10-19T14:08:15.430Z,15.37
2018-10-19T14:10:43.906Z,14.63
2018-10-19T14:13:12.330Z,15.67
2018-10-19T14:15:40.769Z,14.77
2018-10-19T14:18:09.201Z,16.03
2018-10-19T14:20:37.678Z,17.00
2018-10-19T14:23:06.750Z,17.27
2018-10-19T14:25:35.243Z,16.03
2018-10-19T14:28:03.708Z,16.87
2018-10-19T14:30:32.229Z,16.63
2018-10-19T14:33:00.819Z,16.77
2018-10-19T14:35:29.255Z,17.17
2018-10-19T14:37:58.374Z,16.60
2018-10-19T14:40:26.818Z,17.17
2018-10-19T14:42:55.301Z,14.90
2018-10-19T14:45:23.759Z,14.07
2018-10-19T14:47:52.219Z,14.07
2018-10-19T14:50:20.770Z,14.80
2018-10-19T14:52:49.209Z,13.83
2018-10-19T14:55:18.741Z,13.27
2018-10-19T14:57:47.190Z,13.60
2018-10-19T15:00:17.811Z,13.53
2018-10-19T15:02:46.438Z,14.13
2018-10-19T15:05:16.410Z,13.80
2018-10-19T15:07:44.863Z,14.30
2018-10-19T15:10:15.692Z,14.73
2018-10-19T15:12:44.226Z,15.20
2018-10-19T15:15:15.290Z,15.03
2018-10-19T15:17:44.025Z,16.40
2018-10-19T15:20:13.374Z,15.47
2018-10-19T15:22:41.822Z,15.90
2018-10-19T15:25:10.752Z,14.67
2018-10-19T15:27:40.245Z,15.17
2018-10-19T15:30:11.068Z,15.07
2018-10-19T15:32:39.429Z,15.70
2018-10-19T15:35:08.166Z,15.67
2018-10-19T15:37:36.607Z,17.23
2018-10-19T15:40:05.726Z,16.07
2018-10-19T15:42:34.177Z,16.27
2018-10-19T15:45:02.749Z,15.83
2018-10-19T15:47:32.307Z,15.47
2018-10-19T15:50:00.783Z,15.93
2018-10-19T15:52:29.672Z,15.40
2018-10-19T15:54:58.217Z,15.53
2018-10-19T15:57:26.738Z,15.10
2018-10-19T15:59:55.189Z,15.23
2018-10-19T16:02:23.711Z,15.03
2018-10-19T16:04:52.182Z,14.97
2018-10-19T16:07:20.642Z,15.17
2018-10-19T16:09:49.124Z,15.47
2018-10-19T16:12:17.566Z,14.80
2018-10-19T16:14:46.066Z,13.60
2018-10-19T16:17:14.594Z,11.97
2018-10-19T16:19:43.165Z,13.43
2018-10-19T16:22:11.703Z,11.93
2018-10-19T16:24:40.195Z,12.53
2018-10-19T16:27:08.684Z,11.87
2018-10-19T16:29:37.092Z,12.60
2018-10-19T16:32:06.009Z,12.93
2018-10-19T16:34:34.829Z,12.50
2018-10-19T16:37:03.251Z,12.97
2018-10-19T16:39:31.690Z,13.53
2018-10-19T16:42:00.163Z,13.10
2018-10-19T16:44:29.232Z,13.33
2018-10-19T16:46:57.899Z,13.07
2018-10-19T16:49:26.349Z,13.37
2018-10-19T16:51:54.842Z,13.10
2018-10-19T16:54:23.285Z,13.53
2018-10-19T16:56:51.760Z,13.17
2018-10-19T16:59:20.196Z,14.07
2018-10-19T17:01:48.711Z,13.23
2018-10-19T17:04:17.147Z,13.23
2018-10-19T17:06:45.578Z,13.73
2018-10-19T17:09:14.745Z,12.47
2018-10-19T17:11:43.272Z,12.87
2018-10-19T17:14:12.018Z,12.80
2018-10-19T17:16:40.475Z,13.90
2018-10-19T17:19:09.452Z,13.23
2018-10-19T17:21:38.071Z,15.27
2018-10-19T17:24:07.075Z,16.73
2018-10-19T17:26:35.613Z,17.13
2018-10-19T17:29:04.432Z,14.90
2018-10-19T17:31:33.176Z,16.90
2018-10-19T17:34:01.575Z,16.33
2018-10-19T17:36:30.037Z,16.77
2018-10-19T17:38:58.632Z,17.63
2018-10-19T17:41:27.276Z,16.80
2018-10-19T17:43:55.825Z,16.17
2018-10-19T17:46:24.306Z,15.37
2018-10-19T17:48:52.993Z,16.37
2018-10-19T17:51:21.395Z,15.73
2018-10-19T17:53:49.982Z,20.97
2018-10-19T17:56:18.402Z,16.90
2018-10-19T17:58:46.866Z,16.10
2018-10-19T18:01:15.305Z,16.57
2018-10-19T18:03:43.833Z,16.43
2018-10-19T18:06:12.346Z,17.03
2018-10-19T18:08:40.768Z,21.17
2018-10-19T18:11:09.296Z,21.33
2018-10-19T18:13:37.709Z,21.13
2018-10-19T18:16:06.291Z,21.40
2018-10-19T18:18:34.706Z,18.73
2018-10-19T18:21:03.252Z,18.83
2018-10-19T18:23:31.725Z,18.43
2018-10-19T18:26:02.025Z,17.73
2018-10-19T18:28:31.132Z,19.20
2018-10-19T18:30:59.703Z,19.00
2018-10-19T18:33:28.233Z,20.13
2018-10-19T18:35:56.881Z,19.27
2018-10-19T18:38:25.349Z,19.23
2018-10-19T18:40:56.287Z,20.30
2018-10-19T18:43:24.989Z,19.50
2018-10-19T18:45:53.430Z,19.90
2018-10-19T18:48:21.903Z,20.13
2018-10-19T18:50:50.487Z,19.47
2018-10-19T18:53:18.918Z,22.07
2018-10-19T18:55:47.350Z,22.37
2018-10-19T18:58:15.834Z,22.83
2018-10-19T19:00:45.525Z,23.33
2018-10-19T19:03:14.222Z,22.97
2018-10-19T19:05:43.989Z,21.73
2018-10-19T19:08:12.511Z,23.20
2018-10-19T19:10:40.927Z,22.20
2018-10-19T19:13:14.728Z,22.20
2018-10-19T19:15:43.212Z,21.87
2018-10-19T19:18:11.649Z,22.70
2018-10-19T19:20:40.138Z,22.50
2018-10-19T19:23:09.120Z,23.33
2018-10-19T19:25:43.094Z,28.53
2018-10-19T19:28:11.582Z,30.90
2018-10-19T19:30:40.090Z,27.73
2018-10-19T19:33:14.039Z,26.87
2018-10-19T19:35:42.487Z,26.33
2018-10-19T19:38:11.048Z,26.33
2018-10-19T19:40:45.834Z,25.03
2018-10-19T19:43:14.269Z,24.03
2018-10-19T19:45:42.839Z,26.33
2018-10-19T19:48:16.646Z,22.90
2018-10-19T19:50:45.378Z,22.43
2018-10-19T19:53:13.915Z,23.40
2018-10-19T19:55:42.399Z,23.20
2018-10-19T19:58:10.998Z,22.73
2018-10-19T20:00:39.445Z,23.83
2018-10-19T20:03:07.923Z,24.53
2018-10-19T20:05:36.403Z,23.97
2018-10-19T20:08:05.318Z,21.50
2018-10-19T20:10:33.782Z,24.83
2018-10-19T20:13:02.411Z,22.83
2018-10-19T20:15:30.907Z,22.17
2018-10-19T20:18:00.067Z,23.60
2018-10-19T20:20:29.601Z,22.37
2018-10-19T20:22:58.148Z,21.43
2018-10-19T20:25:26.665Z,22.53
2018-10-19T20:27:55.190Z,21.97
2018-10-19T20:30:23.693Z,21.87
2018-10-19T20:32:52.215Z,23.10
2018-10-19T20:35:20.691Z,23.30
2018-10-19T20:37:49.286Z,22.00
2018-10-19T20:40:24.482Z,23.10
2018-10-19T20:42:53.486Z,23.00
2018-10-19T20:45:21.939Z,24.63
2018-10-19T20:47:50.418Z,22.97
2018-10-19T20:50:18.963Z,24.10
2018-10-19T20:52:47.438Z,24.77
2018-10-19T20:55:15.982Z,25.20
2018-10-19T20:57:44.459Z,24.63
2018-10-19T21:00:13.043Z,23.07
2018-10-19T21:02:41.562Z,23.37
2018-10-19T21:05:11.355Z,25.33
2018-10-19T21:07:39.880Z,24.63
2018-10-19T21:10:11.304Z,25.57
2018-10-19T21:12:39.789Z,25.60
2018-10-19T21:15:10.742Z,25.67
2018-10-19T21:17:39.574Z,24.53
2018-10-19T21:20:09.198Z,24.13
2018-10-19T21:22:37.736Z,23.73
2018-10-19T21:25:07.332Z,24.90
2018-10-19T21:27:36.001Z,24.97
2018-10-19T21:30:04.801Z,25.23
2018-10-19T21:32:33.208Z,25.23
2018-10-19T21:35:01.690Z,26.17
2018-10-19T21:37:30.171Z,26.60
2018-10-19T21:39:58.627Z,26.23
2018-10-19T21:42:27.106Z,25.13
2018-10-19T21:44:55.623Z,26.77
2018-10-19T21:47:24.529Z,25.27
2018-10-19T21:49:53.070Z,27.73
2018-10-19T21:52:21.550Z,26.37
2018-10-19T21:54:50.170Z,28.00
2018-10-19T21:57:18.746Z,26.53
2018-10-19T21:59:47.209Z,26.10
2018-10-19T22:02:16.706Z,25.83
2018-10-19T22:04:45.202Z,26.83
2018-10-19T22:07:13.774Z,26.10
2018-10-19T22:09:42.305Z,25.37
2018-10-19T22:12:10.858Z,25.20
2018-10-19T22:14:39.398Z,26.53
2018-10-19T22:17:07.976Z,24.90
2018-10-19T22:19:36.415Z,25.70
2018-10-19T22:22:04.963Z,24.53
2018-10-19T22:24:33.480Z,25.60
2018-10-19T22:27:08.283Z,25.73
2018-10-19T22:29:36.762Z,24.90
2018-10-19T22:32:05.695Z,25.00
2018-10-19T22:34:34.174Z,25.27
2018-10-19T22:37:02.668Z,26.30
2018-10-19T22:39:31.153Z,26.00
2018-10-19T22:41:59.627Z,24.47
2018-10-19T22:44:28.094Z,26.37
2018-10-19T22:46:56.866Z,26.73
2018-10-19T22:49:25.338Z,24.87
2018-10-19T22:51:53.834Z,25.63
2018-10-19T22:54:22.299Z,24.70
2018-10-19T22:56:50.818Z,26.20
2018-10-19T22:59:19.748Z,24.73
2018-10-19T23:01:48.211Z,25.23
2018-10-19T23:04:16.666Z,26.60
2018-10-19T23:06:45.241Z,26.10
2018-10-19T23:09:13.717Z,27.97
2018-10-19T23:11:42.173Z,29.67
2018-10-19T23:14:10.691Z,29.20
2018-10-19T23:16:39.164Z,29.63
2018-10-19T23:19:07.648Z,30.77
2018-10-19T23:21:36.464Z,27.80
2018-10-19T23:24:05.630Z,30.13
2018-10-19T23:26:34.194Z,30.30
2018-10-19T23:29:02.824Z,31.17
2018-10-19T23:31:31.419Z,30.57
2018-10-19T23:33:59.796Z,31.47
2018-10-19T23:36:28.242Z,32.10
2018-10-19T23:38:56.751Z,31.57
2018-10-19T23:41:25.206Z,30.20
2018-10-19T23:43:53.766Z,30.53
2018-10-19T23:46:22.193Z,30.57
2018-10-19T23:48:50.662Z,30.40
2018-10-19T23:51:19.142Z,29.20
2018-10-19T23:53:47.595Z,30.03
2018-10-19T23:56:16.095Z,31.53
2018-10-19T23:58:44.523Z,32.53
